Jupiter Spirit — A8ZC2 — position and weather

sailwx.info

Track history (hours):
 
Tides and Currents Weather Stations Pressure Air Temp Water Temp Dewpoint Dewpoint Depression Visibility Wind Speed Wind Dir Waves Ship Positions

Jupiter Spirit

Last reported at 2018-Feb-13 15:02 UTC. Time now 2018-Feb-21 17:33 UTC.
Position N 34°23' E 138°39'.
Warning: this ship's position is 8 days out of date.

Length 183 m; draft 8.1 m.

Type: Cargo ship. MMSI: 636015173.

Date/timePositionNaut miles runAvg speedWind from/ knotsBaromVisibWave heightAir tempDewpointWater temp
2018-Feb-13 15:02N 34°23' E 138°39'110.0
2018-Feb-13 14:58N 34°23' E 138°39'510.2
2018-Feb-13 14:28N 34°26' E 138°45'510.1
2018-Feb-13 13:59N 34°28' E 138°50'5 9.7
2018-Feb-13 13:30N 34°30' E 138°55'5 9.2
2018-Feb-13 13:00N 34°32' E 139°01'5 9.3
2018-Feb-13 12:30N 34°34' E 139°05'5 9.4
2018-Feb-13 12:00N 34°36' E 139°11'5 9.2
2018-Feb-13 11:30N 34°36' E 139°16'5 9.5
2018-Feb-13 10:59N 34°36' E 139°22'5 9.4
2018-Feb-13 10:28N 34°37' E 139°28'910.5
2018-Feb-13 09:38N 34°45' E 139°34'212.6
2018-Feb-13 09:27N 34°47' E 139°35'612.3
2018-Feb-13 08:58N 34°52' E 139°39'715.0
2018-Feb-13 08:30N 34°58' E 139°42'815.4
2018-Feb-13 08:01N 35°06' E 139°45'612.7
2018-Feb-13 07:30N 35°12' E 139°47'611.0
2018-Feb-13 07:01N 35°17' E 139°45'612.9
2018-Feb-13 06:31N 35°23' E 139°43'5 9.0
2018-Feb-13 06:00N 35°28' E 139°42'0 0.3
2018-Feb-13 05:30N 35°28' E 139°42'0 0.0
2018-Feb-13 05:00N 35°28' E 139°42'0 0.0
2018-Feb-13 04:30N 35°28' E 139°42'0 0.0
2018-Feb-13 03:57N 35°28' E 139°42'0 0.0
2018-Feb-13 03:27N 35°28' E 139°42'0 0.0
2018-Feb-13 03:00N 35°28' E 139°42'0 0.0
2018-Feb-13 02:30N 35°28' E 139°42'0 0.0
2018-Feb-13 02:00N 35°28' E 139°42'0 0.0
2018-Feb-13 01:30N 35°28' E 139°42'0 0.0
2018-Feb-13 01:00N 35°28' E 139°42'0 0.0
2018-Feb-13 00:30N 35°28' E 139°42'0 0.0
2018-Feb-13 00:00N 35°28' E 139°42'0 0.0
2018-Feb-12 23:30N 35°28' E 139°42'0 0.0
2018-Feb-12 23:00N 35°28' E 139°42'0 0.0
2018-Feb-12 22:30N 35°28' E 139°42'0 0.1
2018-Feb-12 22:00N 35°28' E 139°42'1 1.7
2018-Feb-12 21:31N 35°27' E 139°43'2 4.2
2018-Feb-12 21:00N 35°26' E 139°45'4 8.0
2018-Feb-12 20:30N 35°22' E 139°45'511.0
2018-Feb-12 20:00N 35°17' E 139°46'611.7
2018-Feb-12 19:30N 35°11' E 139°47'4 7.7
2018-Feb-12 19:00N 35°07' E 139°46'3 6.6
2018-Feb-12 18:30N 35°04' E 139°45'3 6.8
2018-Feb-12 18:00N 35°01' E 139°43'5 7.9
2018-Feb-12 17:25N 34°57' E 139°41'4 8.3
2018-Feb-12 17:00N 34°53' E 139°41'4 8.4
2018-Feb-12 16:30N 34°49' E 139°40'5 8.7
2018-Feb-12 15:57N 34°44' E 139°38'6 9.3
2018-Feb-12 15:17N 34°39' E 139°36'2 6.9
2018-Feb-12 14:57N 34°36' E 139°35'1 1.9
2018-Feb-12 14:19N 34°36' E 139°37'1 2.1
2018-Feb-12 13:53N 34°36' E 139°38'1 2.3
2018-Feb-12 13:30N 34°37' E 139°39'2 1.4
2018-Feb-12 12:18N 34°37' E 139°41'1 0.7
2018-Feb-12 11:12N 34°37' E 139°42'0 0.7
2018-Feb-12 10:49N 34°37' E 139°42'0 0.8
2018-Feb-12 10:19N 34°37' E 139°43'1 1.5
2018-Feb-12 09:53N 34°37' E 139°43'3 1.7
2018-Feb-12 08:17N 34°39' E 139°45'0 1.1
2018-Feb-12 07:57N 34°39' E 139°46'1 1.8
2018-Feb-12 07:28N 34°39' E 139°47'5 1.3
2018-Feb-12 03:33N 34°35' E 139°45'111.4
2018-Feb-12 03:29N 34°35' E 139°44'611.6
2018-Feb-12 03:00N 34°34' E 139°37'612.3
2018-Feb-12 02:30N 34°33' E 139°29'611.3
2018-Feb-12 02:00N 34°33' E 139°23'612.5
2018-Feb-12 01:30N 34°34' E 139°15'714.2
2018-Feb-12 01:00N 34°31' E 139°07'713.8
2018-Feb-12 00:30N 34°28' E 138°60'912.7
2018-Feb-11 23:49N 34°26' E 138°49'411.6
2018-Feb-11 23:30N 34°26' E 138°45'611.1
2018-Feb-11 22:59N 34°26' E 138°38'610.8
2018-Feb-11 22:26N 34°26' E 138°31'610.9
2018-Feb-11 21:51N 34°25' E 138°23'411.2
2018-Feb-11 21:30N 34°25' E 138°19'712.3
2018-Feb-11 20:56N 34°25' E 138°10'611.5
2018-Feb-11 20:27N 34°25' E 138°03'2 4.1
2018-Feb-11 19:51N 34°27' E 138°05'4 9.3
2018-Feb-11 19:26N 34°28' E 138°10'410.0
2018-Feb-11 19:00N 34°28' E 138°15'610.0
2018-Feb-11 18:26N 34°28' E 138°22'5 9.9
2018-Feb-11 17:58N 34°27' E 138°28'7 9.8
2018-Feb-11 17:17N 34°27' E 138°36'3 9.3
2018-Feb-11 17:00N 34°27' E 138°39'4 8.5
2018-Feb-11 16:29N 34°27' E 138°44'4 8.1
2018-Feb-11 16:00N 34°28' E 138°49'4 8.1
2018-Feb-11 15:30N 34°28' E 138°54'4 7.8
2018-Feb-11 15:00N 34°29' E 138°58'4 7.5
2018-Feb-11 14:30N 34°29' E 139°03'4 7.2
2018-Feb-11 14:00N 34°30' E 139°07'3 7.2
2018-Feb-11 13:30N 34°31' E 139°11'4 7.3
2018-Feb-11 12:59N 34°33' E 139°15'3 6.8
2018-Feb-11 12:30N 34°35' E 139°18'4 7.0
2018-Feb-11 12:00N 34°36' E 139°22'4 6.8
2018-Feb-11 11:27N 34°37' E 139°27'3 5.6
2018-Feb-11 11:00N 34°37' E 139°30'3 5.8
2018-Feb-11 10:26N 34°38' E 139°34'2 5.0
2018-Feb-11 10:00N 34°38' E 139°36'3 6.3
2018-Feb-11 09:30N 34°38' E 139°40'4 7.1
2018-Feb-11 08:59N 34°40' E 139°44'3 6.8
2018-Feb-11 08:30N 34°41' E 139°48'13 5.7
2018-Feb-11 06:16N 34°48' E 140°01'3 8.1
2018-Feb-11 05:54N 34°50' E 140°04'  
Track history (hours):
 
Tides and Currents Weather Stations Pressure Air Temp Water Temp Dewpoint Dewpoint Depression Visibility Wind Speed Wind Dir Waves Ship Positions

Jupiter Spirit

Last reported at 2018-Feb-13 15:02 UTC. Time now 2018-Feb-21 17:33 UTC.
Position N 34°23' E 138°39'.
Warning: this ship's position is 8 days out of date.

Length 183 m; draft 8.1 m.

Type: Cargo ship. MMSI: 636015173.

Date/timePositionNaut miles runAvg speedWind from/ knotsBaromVisibWave heightAir tempDewpointWater temp
2018-Feb-13 15:02N 34°23' E 138°39'110.0
2018-Feb-13 14:58N 34°23' E 138°39'510.2
2018-Feb-13 14:28N 34°26' E 138°45'510.1
2018-Feb-13 13:59N 34°28' E 138°50'5 9.7
2018-Feb-13 13:30N 34°30' E 138°55'5 9.2
2018-Feb-13 13:00N 34°32' E 139°01'5 9.3
2018-Feb-13 12:30N 34°34' E 139°05'5 9.4
2018-Feb-13 12:00N 34°36' E 139°11'5 9.2
2018-Feb-13 11:30N 34°36' E 139°16'5 9.5
2018-Feb-13 10:59N 34°36' E 139°22'5 9.4
2018-Feb-13 10:28N 34°37' E 139°28'910.5
2018-Feb-13 09:38N 34°45' E 139°34'212.6
2018-Feb-13 09:27N 34°47' E 139°35'612.3
2018-Feb-13 08:58N 34°52' E 139°39'715.0
2018-Feb-13 08:30N 34°58' E 139°42'815.4
2018-Feb-13 08:01N 35°06' E 139°45'612.7
2018-Feb-13 07:30N 35°12' E 139°47'611.0
2018-Feb-13 07:01N 35°17' E 139°45'612.9
2018-Feb-13 06:31N 35°23' E 139°43'5 9.0
2018-Feb-13 06:00N 35°28' E 139°42'0 0.3
2018-Feb-13 05:30N 35°28' E 139°42'0 0.0
2018-Feb-13 05:00N 35°28' E 139°42'0 0.0
2018-Feb-13 04:30N 35°28' E 139°42'0 0.0
2018-Feb-13 03:57N 35°28' E 139°42'0 0.0
2018-Feb-13 03:27N 35°28' E 139°42'0 0.0
2018-Feb-13 03:00N 35°28' E 139°42'0 0.0
2018-Feb-13 02:30N 35°28' E 139°42'0 0.0
2018-Feb-13 02:00N 35°28' E 139°42'0 0.0
2018-Feb-13 01:30N 35°28' E 139°42'0 0.0
2018-Feb-13 01:00N 35°28' E 139°42'0 0.0
2018-Feb-13 00:30N 35°28' E 139°42'0 0.0
2018-Feb-13 00:00N 35°28' E 139°42'0 0.0
2018-Feb-12 23:30N 35°28' E 139°42'0 0.0
2018-Feb-12 23:00N 35°28' E 139°42'0 0.0
2018-Feb-12 22:30N 35°28' E 139°42'0 0.1
2018-Feb-12 22:00N 35°28' E 139°42'1 1.7
2018-Feb-12 21:31N 35°27' E 139°43'2 4.2
2018-Feb-12 21:00N 35°26' E 139°45'4 8.0
2018-Feb-12 20:30N 35°22' E 139°45'511.0
2018-Feb-12 20:00N 35°17' E 139°46'611.7
2018-Feb-12 19:30N 35°11' E 139°47'4 7.7
2018-Feb-12 19:00N 35°07' E 139°46'3 6.6
2018-Feb-12 18:30N 35°04' E 139°45'3 6.8
2018-Feb-12 18:00N 35°01' E 139°43'5 7.9
2018-Feb-12 17:25N 34°57' E 139°41'4 8.3
2018-Feb-12 17:00N 34°53' E 139°41'4 8.4
2018-Feb-12 16:30N 34°49' E 139°40'5 8.7
2018-Feb-12 15:57N 34°44' E 139°38'6 9.3
2018-Feb-12 15:17N 34°39' E 139°36'2 6.9
2018-Feb-12 14:57N 34°36' E 139°35'1 1.9
2018-Feb-12 14:19N 34°36' E 139°37'1 2.1
2018-Feb-12 13:53N 34°36' E 139°38'1 2.3
2018-Feb-12 13:30N 34°37' E 139°39'2 1.4
2018-Feb-12 12:18N 34°37' E 139°41'1 0.7
2018-Feb-12 11:12N 34°37' E 139°42'0 0.7
2018-Feb-12 10:49N 34°37' E 139°42'0 0.8
2018-Feb-12 10:19N 34°37' E 139°43'1 1.5
2018-Feb-12 09:53N 34°37' E 139°43'3 1.7
2018-Feb-12 08:17N 34°39' E 139°45'0 1.1
2018-Feb-12 07:57N 34°39' E 139°46'1 1.8
2018-Feb-12 07:28N 34°39' E 139°47'5 1.3
2018-Feb-12 03:33N 34°35' E 139°45'111.4
2018-Feb-12 03:29N 34°35' E 139°44'611.6
2018-Feb-12 03:00N 34°34' E 139°37'612.3
2018-Feb-12 02:30N 34°33' E 139°29'611.3
2018-Feb-12 02:00N 34°33' E 139°23'612.5
2018-Feb-12 01:30N 34°34' E 139°15'714.2
2018-Feb-12 01:00N 34°31' E 139°07'713.8
2018-Feb-12 00:30N 34°28' E 138°60'912.7
2018-Feb-11 23:49N 34°26' E 138°49'411.6
2018-Feb-11 23:30N 34°26' E 138°45'611.1
2018-Feb-11 22:59N 34°26' E 138°38'610.8
2018-Feb-11 22:26N 34°26' E 138°31'610.9
2018-Feb-11 21:51N 34°25' E 138°23'411.2
2018-Feb-11 21:30N 34°25' E 138°19'712.3
2018-Feb-11 20:56N 34°25' E 138°10'611.5
2018-Feb-11 20:27N 34°25' E 138°03'2 4.1
2018-Feb-11 19:51N 34°27' E 138°05'4 9.3
2018-Feb-11 19:26N 34°28' E 138°10'410.0
2018-Feb-11 19:00N 34°28' E 138°15'610.0
2018-Feb-11 18:26N 34°28' E 138°22'5 9.9
2018-Feb-11 17:58N 34°27' E 138°28'7 9.8
2018-Feb-11 17:17N 34°27' E 138°36'3 9.3
2018-Feb-11 17:00N 34°27' E 138°39'4 8.5
2018-Feb-11 16:29N 34°27' E 138°44'4 8.1
2018-Feb-11 16:00N 34°28' E 138°49'4 8.1
2018-Feb-11 15:30N 34°28' E 138°54'4 7.8
2018-Feb-11 15:00N 34°29' E 138°58'4 7.5
2018-Feb-11 14:30N 34°29' E 139°03'4 7.2
2018-Feb-11 14:00N 34°30' E 139°07'3 7.2
2018-Feb-11 13:30N 34°31' E 139°11'4 7.3
2018-Feb-11 12:59N 34°33' E 139°15'3 6.8
2018-Feb-11 12:30N 34°35' E 139°18'4 7.0
2018-Feb-11 12:00N 34°36' E 139°22'4 6.8
2018-Feb-11 11:27N 34°37' E 139°27'3 5.6
2018-Feb-11 11:00N 34°37' E 139°30'3 5.8
2018-Feb-11 10:26N 34°38' E 139°34'2 5.0
2018-Feb-11 10:00N 34°38' E 139°36'3 6.3
2018-Feb-11 09:30N 34°38' E 139°40'4 7.1
2018-Feb-11 08:59N 34°40' E 139°44'3 6.8
2018-Feb-11 08:30N 34°41' E 139°48'13 5.7
2018-Feb-11 06:16N 34°48' E 140°01'3 8.1
2018-Feb-11 05:54N 34°50' E 140°04'  

Dump ship's entire track history